sensor_id;sensor_type;location;lat;lon;timestamp;P1;P2;P0
66395;PMS5003;72184;51.378;-1.342;2024-03-08T00:01:52;16;13;
66395;PMS5003;72184;51.378;-1.342;2024-03-08T00:04:19;18;17;
66395;PMS5003;72184;51.378;-1.342;2024-03-08T00:06:47;17;16;
66395;PMS5003;72184;51.378;-1.342;2024-03-08T00:09:14;18;17;
66395;PMS5003;72184;51.378;-1.342;2024-03-08T00:11:41;14;12;
66395;PMS5003;72184;51.378;-1.342;2024-03-08T00:14:08;17;16;
66395;PMS5003;72184;51.378;-1.342;2024-03-08T00:16:36;18;16;
66395;PMS5003;72184;51.378;-1.342;2024-03-08T00:19:04;17;16;
66395;PMS5003;72184;51.378;-1.342;2024-03-08T00:21:31;17;14;
66395;PMS5003;72184;51.378;-1.342;2024-03-08T00:23:58;18;15;
66395;PMS5003;72184;51.378;-1.342;2024-03-08T00:26:25;18;17;
66395;PMS5003;72184;51.378;-1.342;2024-03-08T00:28:52;18;16;
66395;PMS5003;72184;51.378;-1.342;2024-03-08T00:31:20;17;17;
66395;PMS5003;72184;51.378;-1.342;2024-03-08T00:33:47;18;14;
66395;PMS5003;72184;51.378;-1.342;2024-03-08T00:36:14;18;16;
66395;PMS5003;72184;51.378;-1.342;2024-03-08T00:38:41;19;19;
66395;PMS5003;72184;51.378;-1.342;2024-03-08T00:41:09;17;17;
66395;PMS5003;72184;51.378;-1.342;2024-03-08T00:43:37;20;18;
66395;PMS5003;72184;51.378;-1.342;2024-03-08T00:46:04;17;15;
66395;PMS5003;72184;51.378;-1.342;2024-03-08T00:48:31;19;17;
66395;PMS5003;72184;51.378;-1.342;2024-03-08T00:50:58;19;18;
66395;PMS5003;72184;51.378;-1.342;2024-03-08T00:53:25;19;16;
66395;PMS5003;72184;51.378;-1.342;2024-03-08T00:55:53;21;18;
66395;PMS5003;72184;51.378;-1.342;2024-03-08T00:58:20;20;18;
66395;PMS5003;72184;51.378;-1.342;2024-03-08T01:00:47;20;19;
66395;PMS5003;72184;51.378;-1.342;2024-03-08T01:03:15;19;19;
66395;PMS5003;72184;51.378;-1.342;2024-03-08T01:05:42;22;19;
66395;PMS5003;72184;51.378;-1.342;2024-03-08T01:08:10;20;20;
66395;PMS5003;72184;51.378;-1.342;2024-03-08T01:10:37;19;18;
66395;PMS5003;72184;51.378;-1.342;2024-03-08T01:13:04;20;18;
66395;PMS5003;72184;51.378;-1.342;2024-03-08T01:15:31;18;17;
66395;PMS5003;72184;51.378;-1.342;2024-03-08T01:17:58;18;18;
66395;PMS5003;72184;51.378;-1.342;2024-03-08T01:20:25;21;18;
66395;PMS5003;72184;51.378;-1.342;2024-03-08T01:22:53;19;18;
66395;PMS5003;72184;51.378;-1.342;2024-03-08T01:25:20;19;18;
66395;PMS5003;72184;51.378;-1.342;2024-03-08T01:27:47;20;19;
66395;PMS5003;72184;51.378;-1.342;2024-03-08T01:30:14;20;17;
66395;PMS5003;72184;51.378;-1.342;2024-03-08T01:32:41;20;17;
66395;PMS5003;72184;51.378;-1.342;2024-03-08T01:35:09;20;18;
66395;PMS5003;72184;51.378;-1.342;2024-03-08T01:37:37;17;16;
66395;PMS5003;72184;51.378;-1.342;2024-03-08T01:40:04;19;17;
66395;PMS5003;72184;51.378;-1.342;2024-03-08T01:42:33;18;17;
66395;PMS5003;72184;51.378;-1.342;2024-03-08T01:45:00;17;17;
66395;PMS5003;72184;51.378;-1.342;2024-03-08T01:47:28;19;19;
66395;PMS5003;72184;51.378;-1.342;2024-03-08T01:49:55;20;18;
66395;PMS5003;72184;51.378;-1.342;2024-03-08T01:52:22;18;15;
66395;PMS5003;72184;51.378;-1.342;2024-03-08T01:54:49;18;17;
66395;PMS5003;72184;51.378;-1.342;2024-03-08T01:57:16;17;16;
66395;PMS5003;72184;51.378;-1.342;2024-03-08T01:59:43;20;19;
66395;PMS5003;72184;51.378;-1.342;2024-03-08T02:02:11;17;16;
66395;PMS5003;72184;51.378;-1.342;2024-03-08T02:04:41;16;14;
66395;PMS5003;72184;51.378;-1.342;2024-03-08T02:07:08;18;17;
66395;PMS5003;72184;51.378;-1.342;2024-03-08T02:09:36;18;17;
66395;PMS5003;72184;51.378;-1.342;2024-03-08T02:12:03;18;16;
66395;PMS5003;72184;51.378;-1.342;2024-03-08T02:14:32;19;17;
66395;PMS5003;72184;51.378;-1.342;2024-03-08T02:17:00;19;18;
66395;PMS5003;72184;51.378;-1.342;2024-03-08T02:19:27;18;16;
66395;PMS5003;72184;51.378;-1.342;2024-03-08T02:21:54;18;17;
66395;PMS5003;72184;51.378;-1.342;2024-03-08T02:24:23;18;17;
66395;PMS5003;72184;51.378;-1.342;2024-03-08T02:26:51;19;18;
66395;PMS5003;72184;51.378;-1.342;2024-03-08T02:29:18;19;19;
66395;PMS5003;72184;51.378;-1.342;2024-03-08T02:31:46;18;16;
66395;PMS5003;72184;51.378;-1.342;2024-03-08T02:34:13;20;19;
66395;PMS5003;72184;51.378;-1.342;2024-03-08T02:36:40;21;18;
66395;PMS5003;72184;51.378;-1.342;2024-03-08T02:39:07;18;16;
66395;PMS5003;72184;51.378;-1.342;2024-03-08T02:41:35;18;18;
66395;PMS5003;72184;51.378;-1.342;2024-03-08T02:44:02;21;19;
66395;PMS5003;72184;51.378;-1.342;2024-03-08T02:46:29;18;18;
66395;PMS5003;72184;51.378;-1.342;2024-03-08T02:48:56;19;18;
66395;PMS5003;72184;51.378;-1.342;2024-03-08T02:51:23;18;17;
66395;PMS5003;72184;51.378;-1.342;2024-03-08T02:53:51;21;19;
66395;PMS5003;72184;51.378;-1.342;2024-03-08T02:56:18;18;17;
66395;PMS5003;72184;51.378;-1.342;2024-03-08T02:58:45;20;18;
66395;PMS5003;72184;51.378;-1.342;2024-03-08T03:01:12;17;17;
66395;PMS5003;72184;51.378;-1.342;2024-03-08T03:03:39;17;17;
66395;PMS5003;72184;51.378;-1.342;2024-03-08T03:06:08;20;20;
66395;PMS5003;72184;51.378;-1.342;2024-03-08T03:08:36;20;19;
66395;PMS5003;72184;51.378;-1.342;2024-03-08T03:11:03;19;17;
66395;PMS5003;72184;51.378;-1.342;2024-03-08T03:13:30;19;18;
66395;PMS5003;72184;51.378;-1.342;2024-03-08T03:15:57;19;18;
66395;PMS5003;72184;51.378;-1.342;2024-03-08T03:18:24;20;19;
66395;PMS5003;72184;51.378;-1.342;2024-03-08T03:20:57;20;19;
66395;PMS5003;72184;51.378;-1.342;2024-03-08T03:23:24;21;19;
66395;PMS5003;72184;51.378;-1.342;2024-03-08T03:25:51;20;19;
66395;PMS5003;72184;51.378;-1.342;2024-03-08T03:28:18;20;19;
66395;PMS5003;72184;51.378;-1.342;2024-03-08T03:30:45;21;18;
66395;PMS5003;72184;51.378;-1.342;2024-03-08T03:33:13;22;21;
66395;PMS5003;72184;51.378;-1.342;2024-03-08T03:35:40;22;19;
66395;PMS5003;72184;51.378;-1.342;2024-03-08T03:38:08;19;18;
66395;PMS5003;72184;51.378;-1.342;2024-03-08T03:40:36;20;18;
66395;PMS5003;72184;51.378;-1.342;2024-03-08T03:43:04;19;19;
66395;PMS5003;72184;51.378;-1.342;2024-03-08T03:45:32;22;20;
66395;PMS5003;72184;51.378;-1.342;2024-03-08T03:47:59;22;20;
66395;PMS5003;72184;51.378;-1.342;2024-03-08T03:50:26;20;18;
66395;PMS5003;72184;51.378;-1.342;2024-03-08T03:52:58;21;19;
66395;PMS5003;72184;51.378;-1.342;2024-03-08T03:55:25;21;18;
66395;PMS5003;72184;51.378;-1.342;2024-03-08T03:57:53;21;19;
66395;PMS5003;72184;51.378;-1.342;2024-03-08T04:00:20;20;19;
66395;PMS5003;72184;51.378;-1.342;2024-03-08T04:02:47;21;18;
66395;PMS5003;72184;51.378;-1.342;2024-03-08T04:05:14;20;19;
66395;PMS5003;72184;51.378;-1.342;2024-03-08T04:07:41;20;18;
66395;PMS5003;72184;51.378;-1.342;2024-03-08T04:10:11;20;18;
66395;PMS5003;72184;51.378;-1.342;2024-03-08T04:12:39;22;22;
66395;PMS5003;72184;51.378;-1.342;2024-03-08T04:15:06;20;20;
66395;PMS5003;72184;51.378;-1.342;2024-03-08T04:17:34;19;18;
66395;PMS5003;72184;51.378;-1.342;2024-03-08T04:20:01;20;19;
66395;PMS5003;72184;51.378;-1.342;2024-03-08T04:22:30;19;19;
66395;PMS5003;72184;51.378;-1.342;2024-03-08T04:24:57;21;20;
66395;PMS5003;72184;51.378;-1.342;2024-03-08T04:27:24;19;19;
66395;PMS5003;72184;51.378;-1.342;2024-03-08T04:29:51;20;19;
66395;PMS5003;72184;51.378;-1.342;2024-03-08T04:32:18;19;17;
66395;PMS5003;72184;51.378;-1.342;2024-03-08T04:34:46;17;16;
66395;PMS5003;72184;51.378;-1.342;2024-03-08T04:37:13;19;18;
66395;PMS5003;72184;51.378;-1.342;2024-03-08T04:39:40;19;18;
66395;PMS5003;72184;51.378;-1.342;2024-03-08T04:42:07;19;19;
66395;PMS5003;72184;51.378;-1.342;2024-03-08T04:44:36;20;17;
66395;PMS5003;72184;51.378;-1.342;2024-03-08T04:47:04;21;19;
66395;PMS5003;72184;51.378;-1.342;2024-03-08T04:49:31;17;15;
66395;PMS5003;72184;51.378;-1.342;2024-03-08T04:51:59;18;18;
66395;PMS5003;72184;51.378;-1.342;2024-03-08T04:54:27;19;17;
66395;PMS5003;72184;51.378;-1.342;2024-03-08T04:56:54;18;15;
66395;PMS5003;72184;51.378;-1.342;2024-03-08T04:59:22;17;15;
66395;PMS5003;72184;51.378;-1.342;2024-03-08T05:01:49;21;19;
66395;PMS5003;72184;51.378;-1.342;2024-03-08T05:04:16;18;16;
66395;PMS5003;72184;51.378;-1.342;2024-03-08T05:06:43;18;16;
66395;PMS5003;72184;51.378;-1.342;2024-03-08T05:09:10;19;18;
66395;PMS5003;72184;51.378;-1.342;2024-03-08T05:11:37;19;19;
66395;PMS5003;72184;51.378;-1.342;2024-03-08T05:14:05;20;18;
66395;PMS5003;72184;51.378;-1.342;2024-03-08T05:16:32;21;19;
66395;PMS5003;72184;51.378;-1.342;2024-03-08T05:18:59;19;17;
66395;PMS5003;72184;51.378;-1.342;2024-03-08T05:21:26;22;20;
66395;PMS5003;72184;51.378;-1.342;2024-03-08T05:23:53;20;20;
66395;PMS5003;72184;51.378;-1.342;2024-03-08T05:26:21;18;18;
66395;PMS5003;72184;51.378;-1.342;2024-03-08T05:28:48;20;19;
66395;PMS5003;72184;51.378;-1.342;2024-03-08T05:31:17;20;17;
66395;PMS5003;72184;51.378;-1.342;2024-03-08T05:33:46;18;17;
66395;PMS5003;72184;51.378;-1.342;2024-03-08T05:36:13;20;19;
66395;PMS5003;72184;51.378;-1.342;2024-03-08T05:38:41;20;18;
66395;PMS5003;72184;51.378;-1.342;2024-03-08T05:41:08;18;16;
66395;PMS5003;72184;51.378;-1.342;2024-03-08T05:43:35;20;19;
66395;PMS5003;72184;51.378;-1.342;2024-03-08T05:46:02;18;17;
66395;PMS5003;72184;51.378;-1.342;2024-03-08T05:48:29;16;16;
66395;PMS5003;72184;51.378;-1.342;2024-03-08T05:50:57;19;18;
66395;PMS5003;72184;51.378;-1.342;2024-03-08T05:53:24;18;18;
66395;PMS5003;72184;51.378;-1.342;2024-03-08T05:55:51;19;18;
66395;PMS5003;72184;51.378;-1.342;2024-03-08T05:58:18;19;18;
66395;PMS5003;72184;51.378;-1.342;2024-03-08T06:00:45;18;15;
66395;PMS5003;72184;51.378;-1.342;2024-03-08T06:03:13;16;16;
66395;PMS5003;72184;51.378;-1.342;2024-03-08T06:05:40;19;16;
66395;PMS5003;72184;51.378;-1.342;2024-03-08T06:08:12;18;14;
66395;PMS5003;72184;51.378;-1.342;2024-03-08T06:10:39;17;17;
66395;PMS5003;72184;51.378;-1.342;2024-03-08T06:13:06;19;16;
66395;PMS5003;72184;51.378;-1.342;2024-03-08T06:15:33;19;19;
66395;PMS5003;72184;51.378;-1.342;2024-03-08T06:18:01;18;16;
66395;PMS5003;72184;51.378;-1.342;2024-03-08T06:20:28;18;18;
66395;PMS5003;72184;51.378;-1.342;2024-03-08T06:22:56;19;18;
66395;PMS5003;72184;51.378;-1.342;2024-03-08T06:25:23;19;19;
66395;PMS5003;72184;51.378;-1.342;2024-03-08T06:27:50;18;13;
66395;PMS5003;72184;51.378;-1.342;2024-03-08T06:30:17;19;19;
66395;PMS5003;72184;51.378;-1.342;2024-03-08T06:32:44;17;16;
66395;PMS5003;72184;51.378;-1.342;2024-03-08T06:35:11;17;17;
66395;PMS5003;72184;51.378;-1.342;2024-03-08T06:37:39;18;18;
66395;PMS5003;72184;51.378;-1.342;2024-03-08T06:40:06;19;18;
66395;PMS5003;72184;51.378;-1.342;2024-03-08T06:42:34;17;16;
66395;PMS5003;72184;51.378;-1.342;2024-03-08T06:45:01;19;17;
66395;PMS5003;72184;51.378;-1.342;2024-03-08T06:47:29;18;16;
66395;PMS5003;72184;51.378;-1.342;2024-03-08T06:49:56;17;16;
66395;PMS5003;72184;51.378;-1.342;2024-03-08T06:52:23;18;17;
66395;PMS5003;72184;51.378;-1.342;2024-03-08T06:54:51;19;17;
66395;PMS5003;72184;51.378;-1.342;2024-03-08T06:57:18;18;18;
66395;PMS5003;72184;51.378;-1.342;2024-03-08T06:59:45;19;17;
66395;PMS5003;72184;51.378;-1.342;2024-03-08T07:02:12;19;17;
66395;PMS5003;72184;51.378;-1.342;2024-03-08T07:04:39;16;14;
66395;PMS5003;72184;51.378;-1.342;2024-03-08T07:07:06;17;15;
66395;PMS5003;72184;51.378;-1.342;2024-03-08T07:09:33;20;18;
66395;PMS5003;72184;51.378;-1.342;2024-03-08T07:12:00;18;17;
66395;PMS5003;72184;51.378;-1.342;2024-03-08T07:14:27;18;17;
66395;PMS5003;72184;51.378;-1.342;2024-03-08T07:16:55;17;16;
66395;PMS5003;72184;51.378;-1.342;2024-03-08T07:19:22;18;15;
66395;PMS5003;72184;51.378;-1.342;2024-03-08T07:21:49;18;17;
66395;PMS5003;72184;51.378;-1.342;2024-03-08T07:24:16;20;17;
66395;PMS5003;72184;51.378;-1.342;2024-03-08T07:26:43;17;16;
66395;PMS5003;72184;51.378;-1.342;2024-03-08T07:29:10;19;19;
66395;PMS5003;72184;51.378;-1.342;2024-03-08T07:31:37;15;15;
66395;PMS5003;72184;51.378;-1.342;2024-03-08T07:34:04;18;14;
66395;PMS5003;72184;51.378;-1.342;2024-03-08T07:36:32;18;17;
66395;PMS5003;72184;51.378;-1.342;2024-03-08T07:38:59;16;14;
66395;PMS5003;72184;51.378;-1.342;2024-03-08T07:41:26;16;14;
66395;PMS5003;72184;51.378;-1.342;2024-03-08T07:43:53;17;17;
66395;PMS5003;72184;51.378;-1.342;2024-03-08T07:46:20;17;15;
66395;PMS5003;72184;51.378;-1.342;2024-03-08T07:48:47;17;17;
66395;PMS5003;72184;51.378;-1.342;2024-03-08T07:51:15;20;16;
66395;PMS5003;72184;51.378;-1.342;2024-03-08T07:53:42;16;13;
66395;PMS5003;72184;51.378;-1.342;2024-03-08T07:56:10;20;18;
66395;PMS5003;72184;51.378;-1.342;2024-03-08T07:58:38;17;17;
66395;PMS5003;72184;51.378;-1.342;2024-03-08T08:01:05;17;15;
66395;PMS5003;72184;51.378;-1.342;2024-03-08T08:03:32;18;17;
66395;PMS5003;72184;51.378;-1.342;2024-03-08T08:05:59;18;17;
66395;PMS5003;72184;51.378;-1.342;2024-03-08T08:08:26;16;14;
66395;PMS5003;72184;51.378;-1.342;2024-03-08T08:10:53;15;14;
66395;PMS5003;72184;51.378;-1.342;2024-03-08T08:13:21;15;13;
66395;PMS5003;72184;51.378;-1.342;2024-03-08T08:15:48;17;15;
66395;PMS5003;72184;51.378;-1.342;2024-03-08T08:18:15;16;13;
66395;PMS5003;72184;51.378;-1.342;2024-03-08T08:20:42;18;17;
66395;PMS5003;72184;51.378;-1.342;2024-03-08T08:23:10;17;16;
66395;PMS5003;72184;51.378;-1.342;2024-03-08T08:25:37;16;15;
66395;PMS5003;72184;51.378;-1.342;2024-03-08T08:28:06;17;15;
66395;PMS5003;72184;51.378;-1.342;2024-03-08T08:30:33;20;18;
66395;PMS5003;72184;51.378;-1.342;2024-03-08T08:33:00;19;19;
66395;PMS5003;72184;51.378;-1.342;2024-03-08T08:35:27;18;17;
66395;PMS5003;72184;51.378;-1.342;2024-03-08T08:37:54;20;15;
66395;PMS5003;72184;51.378;-1.342;2024-03-08T08:40:21;17;16;
66395;PMS5003;72184;51.378;-1.342;2024-03-08T08:42:48;19;17;
66395;PMS5003;72184;51.378;-1.342;2024-03-08T08:45:16;20;16;
66395;PMS5003;72184;51.378;-1.342;2024-03-08T08:47:44;18;16;
66395;PMS5003;72184;51.378;-1.342;2024-03-08T08:50:11;19;18;
66395;PMS5003;72184;51.378;-1.342;2024-03-08T08:52:39;17;17;
66395;PMS5003;72184;51.378;-1.342;2024-03-08T08:55:07;17;14;
66395;PMS5003;72184;51.378;-1.342;2024-03-08T08:57:34;18;17;
66395;PMS5003;72184;51.378;-1.342;2024-03-08T09:00:01;16;14;
66395;PMS5003;72184;51.378;-1.342;2024-03-08T09:02:29;15;15;
66395;PMS5003;72184;51.378;-1.342;2024-03-08T09:04:57;16;14;
66395;PMS5003;72184;51.378;-1.342;2024-03-08T09:07:24;15;13;
66395;PMS5003;72184;51.378;-1.342;2024-03-08T09:09:51;17;16;
66395;PMS5003;72184;51.378;-1.342;2024-03-08T09:12:18;18;18;
66395;PMS5003;72184;51.378;-1.342;2024-03-08T09:14:45;16;14;
66395;PMS5003;72184;51.378;-1.342;2024-03-08T09:17:12;20;19;
66395;PMS5003;72184;51.378;-1.342;2024-03-08T09:19:39;17;15;
66395;PMS5003;72184;51.378;-1.342;2024-03-08T09:22:06;16;14;
66395;PMS5003;72184;51.378;-1.342;2024-03-08T09:24:33;17;16;
66395;PMS5003;72184;51.378;-1.342;2024-03-08T09:27:00;17;14;
66395;PMS5003;72184;51.378;-1.342;2024-03-08T09:29:27;17;17;
66395;PMS5003;72184;51.378;-1.342;2024-03-08T09:31:55;18;17;
66395;PMS5003;72184;51.378;-1.342;2024-03-08T09:34:22;14;12;
66395;PMS5003;72184;51.378;-1.342;2024-03-08T09:36:49;18;15;
66395;PMS5003;72184;51.378;-1.342;2024-03-08T09:39:16;19;18;
66395;PMS5003;72184;51.378;-1.342;2024-03-08T09:41:43;17;12;
66395;PMS5003;72184;51.378;-1.342;2024-03-08T09:44:10;15;14;
66395;PMS5003;72184;51.378;-1.342;2024-03-08T09:46:38;15;15;
66395;PMS5003;72184;51.378;-1.342;2024-03-08T09:49:06;19;16;
66395;PMS5003;72184;51.378;-1.342;2024-03-08T09:51:34;15;13;
66395;PMS5003;72184;51.378;-1.342;2024-03-08T09:54:03;17;16;
66395;PMS5003;72184;51.378;-1.342;2024-03-08T09:56:31;18;16;
66395;PMS5003;72184;51.378;-1.342;2024-03-08T09:58:59;17;14;
66395;PMS5003;72184;51.378;-1.342;2024-03-08T10:01:26;18;18;
66395;PMS5003;72184;51.378;-1.342;2024-03-08T10:03:53;18;17;
66395;PMS5003;72184;51.378;-1.342;2024-03-08T10:06:22;17;15;
66395;PMS5003;72184;51.378;-1.342;2024-03-08T10:08:49;19;17;
66395;PMS5003;72184;51.378;-1.342;2024-03-08T10:11:16;16;14;
66395;PMS5003;72184;51.378;-1.342;2024-03-08T10:13:44;16;14;
66395;PMS5003;72184;51.378;-1.342;2024-03-08T10:16:11;16;12;
66395;PMS5003;72184;51.378;-1.342;2024-03-08T10:18:39;17;14;
66395;PMS5003;72184;51.378;-1.342;2024-03-08T10:21:07;16;13;
66395;PMS5003;72184;51.378;-1.342;2024-03-08T10:23:36;15;13;
66395;PMS5003;72184;51.378;-1.342;2024-03-08T10:26:09;14;12;
66395;PMS5003;72184;51.378;-1.342;2024-03-08T10:28:38;15;13;
66395;PMS5003;72184;51.378;-1.342;2024-03-08T10:31:05;13;13;
66395;PMS5003;72184;51.378;-1.342;2024-03-08T10:33:32;15;11;
66395;PMS5003;72184;51.378;-1.342;2024-03-08T10:35:59;14;10;
66395;PMS5003;72184;51.378;-1.342;2024-03-08T10:38:27;13;9;
66395;PMS5003;72184;51.378;-1.342;2024-03-08T10:40:58;12;11;
66395;PMS5003;72184;51.378;-1.342;2024-03-08T10:43:28;14;9;
66395;PMS5003;72184;51.378;-1.342;2024-03-08T10:46:07;11;9;
66395;PMS5003;72184;51.378;-1.342;2024-03-08T10:48:49;13;10;
66395;PMS5003;72184;51.378;-1.342;2024-03-08T10:51:19;11;8;
66395;PMS5003;72184;51.378;-1.342;2024-03-08T10:53:46;12;10;
66395;PMS5003;72184;51.378;-1.342;2024-03-08T10:56:15;11;8;
66395;PMS5003;72184;51.378;-1.342;2024-03-08T10:58:42;8;7;
66395;PMS5003;72184;51.378;-1.342;2024-03-08T11:01:10;13;11;
66395;PMS5003;72184;51.378;-1.342;2024-03-08T11:03:47;11;10;
66395;PMS5003;72184;51.378;-1.342;2024-03-08T11:06:15;10;8;
66395;PMS5003;72184;51.378;-1.342;2024-03-08T11:08:44;12;12;
66395;PMS5003;72184;51.378;-1.342;2024-03-08T11:11:29;12;9;
66395;PMS5003;72184;51.378;-1.342;2024-03-08T11:13:59;12;10;
66395;PMS5003;72184;51.378;-1.342;2024-03-08T11:16:43;9;8;
66395;PMS5003;72184;51.378;-1.342;2024-03-08T11:19:23;11;9;
66395;PMS5003;72184;51.378;-1.342;2024-03-08T11:21:59;10;9;
66395;PMS5003;72184;51.378;-1.342;2024-03-08T11:24:28;9;9;
66395;PMS5003;72184;51.378;-1.342;2024-03-08T11:27:05;10;9;
66395;PMS5003;72184;51.378;-1.342;2024-03-08T11:29:33;11;8;
66395;PMS5003;72184;51.378;-1.342;2024-03-08T11:32:04;7;6;
66395;PMS5003;72184;51.378;-1.342;2024-03-08T11:34:34;9;8;
66395;PMS5003;72184;51.378;-1.342;2024-03-08T11:37:03;13;9;
66395;PMS5003;72184;51.378;-1.342;2024-03-08T11:39:32;9;9;
66395;PMS5003;72184;51.378;-1.342;2024-03-08T11:41:59;10;8;
66395;PMS5003;72184;51.378;-1.342;2024-03-08T11:44:27;8;8;
66395;PMS5003;72184;51.378;-1.342;2024-03-08T11:46:54;9;9;
66395;PMS5003;72184;51.378;-1.342;2024-03-08T11:49:22;9;8;
66395;PMS5003;72184;51.378;-1.342;2024-03-08T11:51:51;8;8;
66395;PMS5003;72184;51.378;-1.342;2024-03-08T11:54:19;9;7;
66395;PMS5003;72184;51.378;-1.342;2024-03-08T11:56:47;10;8;
66395;PMS5003;72184;51.378;-1.342;2024-03-08T11:59:15;9;9;
66395;PMS5003;72184;51.378;-1.342;2024-03-08T12:01:42;9;8;
66395;PMS5003;72184;51.378;-1.342;2024-03-08T12:04:11;7;7;
66395;PMS5003;72184;51.378;-1.342;2024-03-08T12:06:39;10;9;
66395;PMS5003;72184;51.378;-1.342;2024-03-08T12:09:08;12;11;
66395;PMS5003;72184;51.378;-1.342;2024-03-08T12:11:35;14;10;
66395;PMS5003;72184;51.378;-1.342;2024-03-08T12:14:03;8;8;
66395;PMS5003;72184;51.378;-1.342;2024-03-08T12:16:31;9;7;
66395;PMS5003;72184;51.378;-1.342;2024-03-08T12:18:59;10;9;
66395;PMS5003;72184;51.378;-1.342;2024-03-08T12:21:27;12;10;
66395;PMS5003;72184;51.378;-1.342;2024-03-08T12:24:02;9;7;
66395;PMS5003;72184;51.378;-1.342;2024-03-08T12:26:31;10;8;
66395;PMS5003;72184;51.378;-1.342;2024-03-08T12:29:14;8;8;
66395;PMS5003;72184;51.378;-1.342;2024-03-08T12:31:42;8;7;
66395;PMS5003;72184;51.378;-1.342;2024-03-08T12:34:10;10;9;
66395;PMS5003;72184;51.378;-1.342;2024-03-08T12:36:38;7;7;
66395;PMS5003;72184;51.378;-1.342;2024-03-08T12:39:11;6;6;
66395;PMS5003;72184;51.378;-1.342;2024-03-08T12:41:39;8;7;
66395;PMS5003;72184;51.378;-1.342;2024-03-08T12:44:06;8;8;
66395;PMS5003;72184;51.378;-1.342;2024-03-08T12:46:34;11;8;
66395;PMS5003;72184;51.378;-1.342;2024-03-08T12:49:01;9;8;
66395;PMS5003;72184;51.378;-1.342;2024-03-08T12:51:28;7;7;
66395;PMS5003;72184;51.378;-1.342;2024-03-08T12:53:55;7;7;
66395;PMS5003;72184;51.378;-1.342;2024-03-08T12:56:28;9;8;
66395;PMS5003;72184;51.378;-1.342;2024-03-08T12:58:56;8;7;
66395;PMS5003;72184;51.378;-1.342;2024-03-08T13:01:23;8;7;
66395;PMS5003;72184;51.378;-1.342;2024-03-08T13:03:50;8;7;
66395;PMS5003;72184;51.378;-1.342;2024-03-08T13:06:18;6;6;
66395;PMS5003;72184;51.378;-1.342;2024-03-08T13:08:46;9;8;
66395;PMS5003;72184;51.378;-1.342;2024-03-08T13:11:14;9;9;
66395;PMS5003;72184;51.378;-1.342;2024-03-08T13:13:41;8;7;
66395;PMS5003;72184;51.378;-1.342;2024-03-08T13:16:08;8;8;
66395;PMS5003;72184;51.378;-1.342;2024-03-08T13:18:37;6;6;
66395;PMS5003;72184;51.378;-1.342;2024-03-08T13:21:05;10;7;
66395;PMS5003;72184;51.378;-1.342;2024-03-08T13:23:32;9;7;
66395;PMS5003;72184;51.378;-1.342;2024-03-08T13:25:59;9;8;
66395;PMS5003;72184;51.378;-1.342;2024-03-08T13:28:26;9;8;
66395;PMS5003;72184;51.378;-1.342;2024-03-08T13:30:53;6;6;
66395;PMS5003;72184;51.378;-1.342;2024-03-08T13:33:21;8;7;
66395;PMS5003;72184;51.378;-1.342;2024-03-08T13:35:48;9;7;
66395;PMS5003;72184;51.378;-1.342;2024-03-08T13:38:15;7;7;
66395;PMS5003;72184;51.378;-1.342;2024-03-08T13:40:43;8;8;
66395;PMS5003;72184;51.378;-1.342;2024-03-08T13:43:10;8;8;
66395;PMS5003;72184;51.378;-1.342;2024-03-08T13:45:37;10;8;
66395;PMS5003;72184;51.378;-1.342;2024-03-08T13:48:05;9;8;
66395;PMS5003;72184;51.378;-1.342;2024-03-08T13:50:33;11;10;
66395;PMS5003;72184;51.378;-1.342;2024-03-08T13:53:00;10;10;
66395;PMS5003;72184;51.378;-1.342;2024-03-08T13:55:27;11;7;
66395;PMS5003;72184;51.378;-1.342;2024-03-08T13:57:54;11;11;
66395;PMS5003;72184;51.378;-1.342;2024-03-08T14:00:21;10;9;
66395;PMS5003;72184;51.378;-1.342;2024-03-08T14:02:48;8;5;
66395;PMS5003;72184;51.378;-1.342;2024-03-08T14:05:15;9;8;
66395;PMS5003;72184;51.378;-1.342;2024-03-08T14:07:42;9;8;
66395;PMS5003;72184;51.378;-1.342;2024-03-08T14:10:10;8;8;
66395;PMS5003;72184;51.378;-1.342;2024-03-08T14:12:38;7;7;
66395;PMS5003;72184;51.378;-1.342;2024-03-08T14:15:05;9;8;
66395;PMS5003;72184;51.378;-1.342;2024-03-08T14:17:33;7;7;
66395;PMS5003;72184;51.378;-1.342;2024-03-08T14:20:00;10;8;
66395;PMS5003;72184;51.378;-1.342;2024-03-08T14:22:27;10;10;
66395;PMS5003;72184;51.378;-1.342;2024-03-08T14:24:54;8;8;
66395;PMS5003;72184;51.378;-1.342;2024-03-08T14:27:21;8;8;
66395;PMS5003;72184;51.378;-1.342;2024-03-08T14:29:48;9;8;
66395;PMS5003;72184;51.378;-1.342;2024-03-08T14:32:15;8;6;
66395;PMS5003;72184;51.378;-1.342;2024-03-08T14:34:42;8;8;
66395;PMS5003;72184;51.378;-1.342;2024-03-08T14:37:10;7;6;
66395;PMS5003;72184;51.378;-1.342;2024-03-08T14:39:37;8;7;
66395;PMS5003;72184;51.378;-1.342;2024-03-08T14:42:04;7;6;
66395;PMS5003;72184;51.378;-1.342;2024-03-08T14:44:31;9;8;
66395;PMS5003;72184;51.378;-1.342;2024-03-08T14:46:59;6;6;
66395;PMS5003;72184;51.378;-1.342;2024-03-08T14:49:27;7;7;
66395;PMS5003;72184;51.378;-1.342;2024-03-08T14:51:54;8;7;
66395;PMS5003;72184;51.378;-1.342;2024-03-08T14:54:21;6;6;
66395;PMS5003;72184;51.378;-1.342;2024-03-08T14:56:48;8;7;
66395;PMS5003;72184;51.378;-1.342;2024-03-08T14:59:16;8;8;
66395;PMS5003;72184;51.378;-1.342;2024-03-08T15:01:43;6;6;
66395;PMS5003;72184;51.378;-1.342;2024-03-08T15:04:10;7;5;
66395;PMS5003;72184;51.378;-1.342;2024-03-08T15:06:37;9;7;
66395;PMS5003;72184;51.378;-1.342;2024-03-08T15:09:05;11;8;
66395;PMS5003;72184;51.378;-1.342;2024-03-08T15:11:32;7;6;
66395;PMS5003;72184;51.378;-1.342;2024-03-08T15:13:59;7;6;
66395;PMS5003;72184;51.378;-1.342;2024-03-08T15:16:26;7;7;
66395;PMS5003;72184;51.378;-1.342;2024-03-08T15:18:53;8;8;
66395;PMS5003;72184;51.378;-1.342;2024-03-08T15:21:20;7;6;
66395;PMS5003;72184;51.378;-1.342;2024-03-08T15:23:47;9;7;
66395;PMS5003;72184;51.378;-1.342;2024-03-08T15:26:15;7;7;
66395;PMS5003;72184;51.378;-1.342;2024-03-08T15:28:43;8;7;
66395;PMS5003;72184;51.378;-1.342;2024-03-08T15:31:11;10;8;
66395;PMS5003;72184;51.378;-1.342;2024-03-08T15:33:39;6;6;
66395;PMS5003;72184;51.378;-1.342;2024-03-08T15:36:07;9;9;
66395;PMS5003;72184;51.378;-1.342;2024-03-08T15:38:34;8;8;
66395;PMS5003;72184;51.378;-1.342;2024-03-08T15:41:01;10;7;
66395;PMS5003;72184;51.378;-1.342;2024-03-08T15:43:28;8;7;
66395;PMS5003;72184;51.378;-1.342;2024-03-08T15:45:55;8;8;
66395;PMS5003;72184;51.378;-1.342;2024-03-08T15:48:22;8;6;
66395;PMS5003;72184;51.378;-1.342;2024-03-08T15:50:49;8;7;
66395;PMS5003;72184;51.378;-1.342;2024-03-08T15:53:17;7;7;
66395;PMS5003;72184;51.378;-1.342;2024-03-08T15:55:44;8;7;
66395;PMS5003;72184;51.378;-1.342;2024-03-08T15:58:11;8;7;
66395;PMS5003;72184;51.378;-1.342;2024-03-08T16:00:38;8;7;
66395;PMS5003;72184;51.378;-1.342;2024-03-08T16:03:06;9;9;
66395;PMS5003;72184;51.378;-1.342;2024-03-08T16:05:33;9;7;
66395;PMS5003;72184;51.378;-1.342;2024-03-08T16:08:00;8;8;
66395;PMS5003;72184;51.378;-1.342;2024-03-08T16:10:28;9;8;
66395;PMS5003;72184;51.378;-1.342;2024-03-08T16:12:56;11;10;
66395;PMS5003;72184;51.378;-1.342;2024-03-08T16:15:23;10;9;